Hong Kong, Hong Kong

09:58 PM HKT on November 22, 2014 (GMT +0800)
Hong Kong International | Change Station
CLOSE
Current Station
Airport
Location: Hong Kong,
Elevation: 23 ft
Nearby Weather Stations

Elev 23 ft 22.31 °N, 113.92 °E | Updated 28 minutes ago

Partly Cloudy
Mendung Sebagian
73 °F
Feels Like 73 °F
N
17
Angin Variable Angin from Dari Timur ke Tenggara

Siang Ini
High -- | Low -- °F
--% Chance of Precip.
Yesterday
High -- | Low -- °F
Precip. -- Inch
6:40 AM 5:39 PM
Bulan Baru, 0% visible
Tekanan 30.04 Inch
Jarak Pandang 6.2 Mil
Awan Few 2000 ft
Titik Embun 66 °F
Kelembaban 78%
Rainfall 0.00 Inch
Snow Depth Not available.
UV 0 out of 12
Pollen Not available.
Air Quality Not available.
Flu Activity Not available.
METAR VHHH 221330Z 11015KT 9999 FEW020 23/19 Q1017 NOSIG

More Conditions Fewer Conditions

Tekanan 30.04 Inch
Jarak Pandang 6.2 Mil
Awan Few 2000 ft
Titik Embun 66 °F
Kelembaban 78%
Rainfall 0.00 Inch
Snow Depth Not available.
UV 0 out of 12
Pollen Not available.
Air Quality Not available.
Flu Activity Not available.
METAR VHHH 221330Z 11015KT 9999 FEW020 23/19 Q1017 NOSIG

More Conditions Fewer Conditions

10-Day Weather Forecast

Almanac

Astronomi

Nov. 22, 2014 Rise Set
Actual Time
Civil Twilight
Nautical Twilight
Astronomical Twilight
Moon
Length Of Visible Light
Lama Satu Hari
Tomorrow will be .
, % of the Moon is Illuminated

Today's Extremes

Country Highs Country Lows

Community

WunderPhotos

Upload Photos

1,772,814 photos uploaded!

WunderBlogs® & News

Nearby

Air Quality

  Air Quality AQ Index Pollutant
Not available.

Snow Depth

Station Depth Elevation

Earthquake Activity

City Distance Mag. Time & Date
Minimum magnitude displayed is 2.5.

Coastal Water Temperatures

Lokasi Temperatur

Nearby Weather Stations